Time;durP1;ratioP1;P1;durP2;ratioP2;P2;SDS_P1;SDS_P2;PMS_P1;PMS_P2;Temp;Humidity;BMP_temperature;BMP_pressure;BME280_temperature;BME280_humidity;BME280_pressure;Samples;Min_cycle;Max_cycle;Signal;HPM_P1;HPM_P2
2023/07/24 00:02:39;;;;;;;5.43;3.50;;;21.90;69.60;;;;;;20922613;28;20244;-62
2023/07/24 00:12:41;;;;;;;6.33;3.60;;;22.00;67.90;;;;;;20920987;28;20254;-63
2023/07/24 00:22:43;;;;;;;4.90;3.77;;;22.10;66.50;;;;;;20921112;28;20294;-62
2023/07/24 00:32:45;;;;;;;5.70;3.93;;;22.10;65.50;;;;;;20920041;28;20726;-62
2023/07/24 00:42:48;;;;;;;5.80;3.90;;;22.10;64.80;;;;;;20919094;28;20298;-62
2023/07/24 00:52:50;;;;;;;5.80;3.80;;;22.00;64.30;;;;;;20918845;28;20239;-62
2023/07/24 01:02:53;;;;;;;7.63;4.53;;;21.80;64.70;;;;;;20917519;28;20257;-62
2023/07/24 01:13:04;;;;;;;7.07;4.30;;;21.70;64.90;;;;;;20899131;28;20695;-63
2023/07/24 01:23:26;;;;;;;6.27;4.23;;;21.70;64.80;;;;;;20915457;28;20254;-62
2023/07/24 01:33:28;;;;;;;7.00;4.00;;;21.60;65.20;;;;;;20915260;28;20692;-62
2023/07/24 01:43:31;;;;;;;8.23;4.33;;;21.50;65.80;;;;;;20914592;28;20208;-62
2023/07/24 01:53:33;;;;;;;6.00;4.17;;;21.30;66.40;;;;;;20914212;28;20392;-62
2023/07/24 02:03:35;;;;;;;10.77;4.77;;;21.30;67.10;;;;;;20913258;28;20232;-62
2023/07/24 02:13:37;;;;;;;7.40;4.80;;;21.20;67.50;;;;;;20912874;28;20235;-62
2023/07/24 02:23:38;;;;;;;9.83;4.87;;;20.80;68.30;;;;;;20912671;28;20246;-62
2023/07/24 02:33:40;;;;;;;9.30;4.47;;;20.70;69.10;;;;;;20919330;28;20277;-67
2023/07/24 02:43:42;;;;;;;7.77;4.60;;;20.60;70.20;;;;;;20928311;28;20211;-62
2023/07/24 02:53:43;;;;;;;9.03;5.13;;;20.50;70.80;;;;;;20927867;28;20318;-62
2023/07/24 03:03:45;;;;;;;7.87;5.30;;;20.40;71.60;;;;;;20926765;28;20584;-62
2023/07/24 03:13:47;;;;;;;8.53;5.53;;;20.50;72.70;;;;;;20926039;28;20325;-62
2023/07/24 03:23:48;;;;;;;9.10;5.53;;;20.40;73.40;;;;;;20925811;28;20545;-64
2023/07/24 03:33:50;;;;;;;6.33;4.93;;;20.40;74.40;;;;;;20924681;28;20290;-68
2023/07/24 03:43:52;;;;;;;13.00;6.00;;;20.20;75.00;;;;;;20922829;28;20293;-67
2023/07/24 03:53:53;;;;;;;7.13;5.30;;;20.10;75.90;;;;;;20923458;28;20231;-65
2023/07/24 04:03:55;;;;;;;8.97;5.27;;;19.90;76.70;;;;;;20922239;28;20246;-63
2023/07/24 04:13:57;;;;;;;7.30;5.30;;;19.90;77.80;;;;;;20921591;28;20295;-66
2023/07/24 04:23:59;;;;;;;8.60;5.53;;;19.90;78.40;;;;;;20921157;28;20230;-64
2023/07/24 04:34:01;;;;;;;7.33;5.40;;;20.00;79.00;;;;;;20919895;28;20246;-68
2023/07/24 04:44:02;;;;;;;9.03;5.80;;;20.10;79.50;;;;;;20919209;28;20254;-69
2023/07/24 04:54:04;;;;;;;9.93;5.97;;;20.40;79.70;;;;;;20918354;28;20715;-67
2023/07/24 05:04:06;;;;;;;9.07;6.33;;;20.60;79.80;;;;;;20917480;28;20242;-68
2023/07/24 05:14:07;;;;;;;7.90;5.77;;;20.80;80.20;;;;;;20916506;28;20231;-63
2023/07/24 05:24:09;;;;;;;13.13;5.87;;;20.90;80.60;;;;;;20915132;28;20613;-69
2023/07/24 05:34:11;;;;;;;10.20;5.90;;;21.10;80.60;;;;;;20914836;28;20236;-61
2023/07/24 05:44:12;;;;;;;9.47;6.10;;;21.40;80.60;;;;;;20896581;28;20603;-61
2023/07/24 05:54:14;;;;;;;9.30;6.57;;;21.80;80.40;;;;;;20882122;28;20234;-61
2023/07/24 06:04:16;;;;;;;8.67;6.13;;;21.90;80.30;;;;;;20847214;28;20609;-62
2023/07/24 06:14:18;;;;;;;9.50;6.97;;;21.90;80.80;;;;;;20834369;28;20219;-61
2023/07/24 06:24:20;;;;;;;9.23;6.53;;;21.90;81.00;;;;;;20911398;28;20210;-60
2023/07/24 06:34:22;;;;;;;10.10;6.23;;;21.90;81.60;;;;;;20909654;28;20760;-59
2023/07/24 06:44:24;;;;;;;11.67;6.50;;;22.00;82.10;;;;;;20909230;28;20204;-61
2023/07/24 06:54:25;;;;;;;11.07;6.80;;;22.30;82.10;;;;;;20854607;28;20239;-60
2023/07/24 07:04:27;;;;;;;14.93;8.93;;;22.40;82.40;;;;;;20838162;28;20239;-67
2023/07/24 07:14:29;;;;;;;14.00;6.90;;;22.60;83.00;;;;;;20823816;28;20228;-70
2023/07/24 07:24:31;;;;;;;13.53;6.47;;;22.80;83.00;;;;;;20840365;28;20212;-60
2023/07/24 07:34:34;;;;;;;19.70;6.30;;;22.90;82.80;;;;;;20841310;28;20238;-69
2023/07/24 07:44:36;;;;;;;18.30;7.10;;;23.10;82.70;;;;;;20840657;28;20255;-61
2023/07/24 07:54:38;;;;;;;10.97;6.03;;;23.30;82.20;;;;;;20839964;28;20236;-60
2023/07/24 08:04:39;;;;;;;15.47;7.20;;;23.50;81.70;;;;;;20839111;28;20272;-70
2023/07/24 08:14:41;;;;;;;21.87;6.53;;;23.80;80.30;;;;;;20838431;28;20238;-68
2023/07/24 08:24:44;;;;;;;15.10;6.67;;;23.90;78.40;;;;;;20838515;28;20644;-61
2023/07/24 08:34:46;;;;;;;11.97;8.70;;;24.20;77.70;;;;;;20836032;28;20232;-65
2023/07/24 08:44:48;;;;;;;8.97;6.80;;;24.10;76.00;;;;;;20836152;28;20299;-61
2023/07/24 08:54:51;;;;;;;12.10;6.57;;;23.90;75.50;;;;;;20836164;28;20240;-61
2023/07/24 09:04:52;;;;;;;9.87;6.00;;;23.90;75.00;;;;;;20834668;28;20233;-67
2023/07/24 09:15:02;;;;;;;11.43;7.87;;;23.90;75.60;;;;;;20833946;28;20235;-67
2023/07/24 09:25:05;;;;;;;10.17;6.23;;;23.70;77.00;;;;;;20833284;28;20705;-69
2023/07/24 09:35:19;;;;;;;9.33;6.43;;;23.60;78.90;;;;;;20832366;28;20660;-60
2023/07/24 09:45:21;;;;;;;11.53;6.47;;;23.70;79.70;;;;;;20830789;28;20576;-67
2023/07/24 09:55:32;;;;;;;8.97;6.53;;;23.90;79.40;;;;;;20830993;28;20208;-70
2023/07/24 10:05:34;;;;;;;11.53;6.60;;;24.00;79.40;;;;;;20830308;28;20244;-63
2023/07/24 10:15:37;;;;;;;8.70;6.20;;;24.30;78.20;;;;;;20829499;28;20266;-65
2023/07/24 10:25:43;;;;;;;14.30;7.10;;;24.60;77.50;;;;;;20849020;28;20786;-62
2023/07/24 10:35:50;;;;;;;14.33;7.10;;;24.80;77.50;;;;;;20876391;28;20642;-62
2023/07/24 10:45:53;;;;;;;12.30;8.43;;;24.70;77.90;;;;;;20850845;28;20315;-60
2023/07/24 10:55:56;;;;;;;8.50;6.10;;;24.60;79.10;;;;;;20837829;28;20209;-61
2023/07/24 11:05:58;;;;;;;9.43;5.80;;;24.60;80.00;;;;;;20925127;28;20251;-71
2023/07/24 11:16:07;;;;;;;13.20;6.37;;;24.80;80.70;;;;;;20926075;28;20218;-80
2023/07/24 11:26:09;;;;;;;8.77;6.33;;;24.80;81.40;;;;;;20924575;28;20251;-66
2023/07/24 11:36:11;;;;;;;11.07;5.97;;;24.60;82.20;;;;;;20873726;28;20708;-68
2023/07/24 11:46:23;;;;;;;7.63;6.30;;;24.50;83.00;;;;;;20840974;28;20232;-69
2023/07/24 11:56:25;;;;;;;8.57;6.17;;;24.40;84.10;;;;;;20840393;28;20254;-68
2023/07/24 12:06:30;;;;;;;11.87;6.30;;;24.30;85.40;;;;;;20837390;28;20283;-72
2023/07/24 12:16:34;;;;;;;10.23;5.77;;;24.40;85.50;;;;;;20841992;28;20668;-79
2023/07/24 12:26:35;;;;;;;28.03;7.33;;;24.60;85.00;;;;;;20836329;28;20311;-66
2023/07/24 12:36:37;;;;;;;8.83;5.93;;;24.50;85.10;;;;;;20893290;28;20573;-67
2023/07/24 12:46:39;;;;;;;22.33;8.17;;;24.70;84.80;;;;;;20918716;28;20242;-64
2023/07/24 12:56:41;;;;;;;7.33;5.97;;;25.10;84.60;;;;;;20917976;28;20291;-65
2023/07/24 13:06:43;;;;;;;51.23;8.20;;;25.40;83.70;;;;;;20917196;28;20243;-68
2023/07/24 13:16:45;;;;;;;8.23;6.10;;;25.60;82.80;;;;;;20916555;28;20208;-70
2023/07/24 13:26:46;;;;;;;11.77;6.30;;;25.60;82.00;;;;;;20915644;28;20243;-72
2023/07/24 13:36:48;;;;;;;9.33;6.17;;;25.50;81.70;;;;;;20913126;28;20204;-67
2023/07/24 13:46:50;;;;;;;12.80;5.90;;;25.40;81.70;;;;;;20913940;28;20238;-68
2023/07/24 13:56:52;;;;;;;7.70;5.90;;;25.80;80.30;;;;;;20909970;28;20212;-69
2023/07/24 14:06:54;;;;;;;8.57;6.07;;;25.90;78.60;;;;;;20863715;28;20256;-63
2023/07/24 14:16:56;;;;;;;14.60;7.17;;;25.80;78.50;;;;;;20861322;28;20686;-67
2023/07/24 14:26:57;;;;;;;9.83;6.30;;;25.80;79.20;;;;;;20862190;28;20274;-70
2023/07/24 14:36:59;;;;;;;11.77;5.90;;;26.80;76.90;;;;;;20867675;28;20578;-64
2023/07/24 14:47:01;;;;;;;8.25;5.57;;;27.40;74.10;;;;;;20865267;28;20241;-68
2023/07/24 14:57:03;;;;;;;7.85;5.57;;;28.10;71.10;;;;;;20825699;28;20295;-70
2023/07/24 15:07:25;;;;;;;10.07;6.90;;;27.90;69.00;;;;;;20826379;28;20275;-69
2023/07/24 15:17:26;;;;;;;8.23;5.90;;;27.80;67.60;;;;;;20827166;28;20200;-69
2023/07/24 15:27:28;;;;;;;7.50;5.97;;;26.70;69.80;;;;;;20826788;28;20700;-68
2023/07/24 15:37:30;;;;;;;12.40;7.30;;;26.00;71.50;;;;;;20827482;28;20215;-67
2023/07/24 15:47:32;;;;;;;10.20;6.87;;;25.40;73.80;;;;;;20862623;28;20250;-66
2023/07/24 15:57:34;;;;;;;8.77;6.43;;;24.90;77.80;;;;;;20910475;28;20227;-67
2023/07/24 16:07:35;;;;;;;8.33;6.20;;;24.40;81.80;;;;;;20839612;28;20244;-67
2023/07/24 16:17:37;;;;;;;10.17;6.50;;;24.10;85.30;;;;;;20874748;28;20231;-70
2023/07/24 16:27:39;;;;;;;10.80;8.43;;;24.20;86.80;;;;;;20920523;28;20241;-68
2023/07/24 16:37:41;;;;;;;9.33;6.87;;;25.10;85.60;;;;;;20919974;28;20204;-64
2023/07/24 16:47:43;;;;;;;12.23;6.20;;;25.00;85.60;;;;;;20913963;28;20267;-64
2023/07/24 16:57:44;;;;;;;9.13;5.90;;;26.00;83.70;;;;;;20832645;28;20220;-64
2023/07/24 17:07:46;;;;;;;7.30;5.53;;;26.10;81.20;;;;;;20832277;28;20237;-63
2023/07/24 17:17:48;;;;;;;9.73;4.82;;;26.50;79.30;;;;;;20831853;28;20204;-61
2023/07/24 17:27:50;;;;;;;6.73;5.63;;;27.30;75.70;;;;;;20831982;28;20228;-64
2023/07/24 17:37:51;;;;;;;5.80;4.27;;;25.60;77.10;;;;;;20833126;28;20567;-71
2023/07/24 17:47:53;;;;;;;8.70;3.00;;;24.50;78.80;;;;;;20830586;28;20239;-73
2023/07/24 17:57:55;;;;;;;8.67;2.93;;;24.10;80.20;;;;;;20831136;28;20204;-70
2023/07/24 18:07:57;;;;;;;5.13;3.50;;;23.80;84.80;;;;;;20829828;28;20332;-69
2023/07/24 18:17:58;;;;;;;4.97;2.57;;;23.60;87.50;;;;;;20830145;28;20299;-61
2023/07/24 18:28:00;;;;;;;5.43;3.17;;;23.50;88.20;;;;;;20829773;28;20232;-65
2023/07/24 18:38:02;;;;;;;6.83;2.93;;;23.20;88.80;;;;;;20833974;28;20212;-62
2023/07/24 18:48:04;;;;;;;5.70;2.53;;;23.00;89.90;;;;;;20866537;28;20236;-63
2023/07/24 18:58:05;;;;;;;3.40;2.13;;;22.80;88.90;;;;;;20869852;28;20292;-69
2023/07/24 19:08:07;;;;;;;19.13;3.13;;;22.60;88.40;;;;;;20860415;28;20236;-65
2023/07/24 19:18:09;;;;;;;3.33;2.33;;;22.50;88.80;;;;;;20875631;28;20295;-62
2023/07/24 19:28:11;;;;;;;3.03;2.40;;;22.30;88.90;;;;;;20874781;28;20331;-62
2023/07/24 19:38:13;;;;;;;4.67;2.50;;;22.30;88.90;;;;;;20880060;28;20207;-63
2023/07/24 19:48:16;;;;;;;3.73;2.20;;;22.10;89.00;;;;;;20875634;28;20227;-62
2023/07/24 19:58:18;;;;;;;3.07;2.40;;;22.00;88.50;;;;;;20872100;28;20210;-62
2023/07/24 20:08:34;;;;;;;4.70;2.13;;;22.00;88.80;;;;;;20875579;28;20294;-62
2023/07/24 20:18:36;;;;;;;4.70;1.90;;;21.90;88.10;;;;;;20876617;28;20210;-61
2023/07/24 20:28:38;;;;;;;6.07;1.90;;;21.80;87.70;;;;;;20869219;28;20330;-61
2023/07/24 20:38:40;;;;;;;2.67;1.93;;;21.70;86.60;;;;;;20870902;28;20718;-63
2023/07/24 20:48:42;;;;;;;4.40;2.20;;;21.50;86.20;;;;;;20884182;28;20239;-62
2023/07/24 20:58:44;;;;;;;3.43;2.07;;;21.40;86.10;;;;;;20882383;28;20207;-62
2023/07/24 21:08:46;;;;;;;3.13;1.87;;;21.30;86.10;;;;;;20868613;28;20254;-61
2023/07/24 21:18:48;;;;;;;2.43;1.93;;;21.30;86.70;;;;;;20873145;28;20652;-63
2023/07/24 21:28:49;;;;;;;2.30;2.00;;;21.20;86.70;;;;;;20868764;28;20274;-63
2023/07/24 21:38:52;;;;;;;3.37;1.80;;;21.10;86.00;;;;;;20826618;28;20213;-62
2023/07/24 21:48:54;;;;;;;3.37;1.93;;;21.10;86.60;;;;;;20831220;28;20330;-62
2023/07/24 21:58:55;;;;;;;1.90;1.70;;;20.90;85.90;;;;;;20831619;28;20212;-71
2023/07/24 22:08:57;;;;;;;2.77;2.00;;;20.90;86.60;;;;;;20830796;28;20347;-71
2023/07/24 22:18:59;;;;;;;2.60;1.70;;;20.80;86.70;;;;;;20831015;28;20209;-69
2023/07/24 22:29:01;;;;;;;2.83;1.97;;;20.70;86.80;;;;;;20829852;28;20236;-63
2023/07/24 22:39:06;;;;;;;4.30;1.63;;;20.60;85.90;;;;;;20829821;28;20307;-66
2023/07/24 22:49:07;;;;;;;2.03;1.77;;;20.60;86.00;;;;;;20834279;28;20590;-62
2023/07/24 22:59:25;;;;;;;2.73;1.70;;;20.40;84.10;;;;;;20845411;28;20296;-64
2023/07/24 23:09:27;;;;;;;2.60;1.77;;;20.50;84.50;;;;;;20844580;28;20334;-71
2023/07/24 23:19:28;;;;;;;3.53;1.90;;;20.20;83.40;;;;;;20859587;28;20218;-63
2023/07/24 23:29:30;;;;;;;3.03;1.73;;;20.20;83.60;;;;;;20843175;28;20333;-64
2023/07/24 23:39:32;;;;;;;2.27;1.90;;;20.10;84.50;;;;;;20842482;28;20676;-65
2023/07/24 23:49:33;;;;;;;3.43;1.90;;;20.00;85.80;;;;;;20857368;28;20235;-69
2023/07/24 23:59:35;;;;;;;3.90;1.80;;;20.00;86.30;;;;;;20839495;28;20641;-70
